sensor_id;sensor_type;location;lat;lon;timestamp;P1;durP1;ratioP1;P2;durP2;ratioP2
60610;SDS011;46439;51.164;13.572;2022-08-19T00:02:09;18.60;;;13.00;;
60610;SDS011;46439;51.164;13.572;2022-08-19T00:04:37;17.30;;;12.80;;
60610;SDS011;46439;51.164;13.572;2022-08-19T00:07:06;18.40;;;13.30;;
60610;SDS011;46439;51.164;13.572;2022-08-19T00:09:35;16.70;;;12.50;;
60610;SDS011;46439;51.164;13.572;2022-08-19T00:12:04;19.10;;;13.40;;
60610;SDS011;46439;51.164;13.572;2022-08-19T00:14:33;16.20;;;12.00;;
60610;SDS011;46439;51.164;13.572;2022-08-19T00:17:02;16.80;;;12.40;;
60610;SDS011;46439;51.164;13.572;2022-08-19T00:19:31;15.30;;;12.40;;
60610;SDS011;46439;51.164;13.572;2022-08-19T00:22:00;16.00;;;12.40;;
60610;SDS011;46439;51.164;13.572;2022-08-19T00:24:29;15.60;;;12.10;;
60610;SDS011;46439;51.164;13.572;2022-08-19T00:26:58;16.30;;;12.20;;
60610;SDS011;46439;51.164;13.572;2022-08-19T00:29:28;16.60;;;11.50;;
60610;SDS011;46439;51.164;13.572;2022-08-19T00:31:59;15.30;;;12.00;;
60610;SDS011;46439;51.164;13.572;2022-08-19T00:34:27;13.60;;;10.90;;
60610;SDS011;46439;51.164;13.572;2022-08-19T00:36:56;14.60;;;11.00;;
60610;SDS011;46439;51.164;13.572;2022-08-19T00:39:26;13.50;;;11.00;;
60610;SDS011;46439;51.164;13.572;2022-08-19T00:41:54;14.20;;;11.00;;
60610;SDS011;46439;51.164;13.572;2022-08-19T00:44:25;13.10;;;10.70;;
60610;SDS011;46439;51.164;13.572;2022-08-19T00:49:26;13.70;;;10.90;;
60610;SDS011;46439;51.164;13.572;2022-08-19T00:51:59;12.10;;;10.90;;
60610;SDS011;46439;51.164;13.572;2022-08-19T00:54:30;16.70;;;10.60;;
60610;SDS011;46439;51.164;13.572;2022-08-19T00:57:00;13.90;;;11.50;;
60610;SDS011;46439;51.164;13.572;2022-08-19T00:59:32;12.80;;;10.80;;
60610;SDS011;46439;51.164;13.572;2022-08-19T01:02:05;12.40;;;10.30;;
60610;SDS011;46439;51.164;13.572;2022-08-19T01:04:34;13.10;;;10.50;;
60610;SDS011;46439;51.164;13.572;2022-08-19T01:07:02;11.50;;;10.30;;
60610;SDS011;46439;51.164;13.572;2022-08-19T01:09:31;12.30;;;10.70;;
60610;SDS011;46439;51.164;13.572;2022-08-19T01:12:00;11.70;;;10.50;;
60610;SDS011;46439;51.164;13.572;2022-08-19T01:14:30;11.40;;;9.70;;
60610;SDS011;46439;51.164;13.572;2022-08-19T01:16:59;13.70;;;10.50;;
60610;SDS011;46439;51.164;13.572;2022-08-19T01:19:29;11.60;;;10.00;;
60610;SDS011;46439;51.164;13.572;2022-08-19T01:22:04;14.00;;;10.20;;
60610;SDS011;46439;51.164;13.572;2022-08-19T01:24:38;12.80;;;10.90;;
60610;SDS011;46439;51.164;13.572;2022-08-19T01:27:10;13.00;;;11.10;;
60610;SDS011;46439;51.164;13.572;2022-08-19T01:29:39;13.40;;;11.30;;
60610;SDS011;46439;51.164;13.572;2022-08-19T01:32:10;13.40;;;10.90;;
60610;SDS011;46439;51.164;13.572;2022-08-19T01:34:41;14.70;;;11.80;;
60610;SDS011;46439;51.164;13.572;2022-08-19T01:37:13;15.20;;;11.20;;
60610;SDS011;46439;51.164;13.572;2022-08-19T01:39:42;16.10;;;12.10;;
60610;SDS011;46439;51.164;13.572;2022-08-19T01:42:12;15.00;;;10.90;;
60610;SDS011;46439;51.164;13.572;2022-08-19T01:44:40;13.40;;;11.90;;
60610;SDS011;46439;51.164;13.572;2022-08-19T01:47:09;13.50;;;11.50;;
60610;SDS011;46439;51.164;13.572;2022-08-19T01:49:37;14.80;;;12.00;;
60610;SDS011;46439;51.164;13.572;2022-08-19T01:52:06;14.10;;;11.30;;
60610;SDS011;46439;51.164;13.572;2022-08-19T01:54:34;13.70;;;11.30;;
60610;SDS011;46439;51.164;13.572;2022-08-19T01:57:03;15.90;;;11.70;;
60610;SDS011;46439;51.164;13.572;2022-08-19T01:59:33;13.00;;;11.40;;
60610;SDS011;46439;51.164;13.572;2022-08-19T02:02:05;15.00;;;11.30;;
60610;SDS011;46439;51.164;13.572;2022-08-19T02:04:35;14.80;;;11.60;;
60610;SDS011;46439;51.164;13.572;2022-08-19T02:07:04;15.80;;;12.20;;
60610;SDS011;46439;51.164;13.572;2022-08-19T02:09:34;14.80;;;12.00;;
60610;SDS011;46439;51.164;13.572;2022-08-19T02:12:03;17.10;;;13.30;;
60610;SDS011;46439;51.164;13.572;2022-08-19T02:14:35;14.70;;;11.80;;
60610;SDS011;46439;51.164;13.572;2022-08-19T02:17:03;15.80;;;12.30;;
60610;SDS011;46439;51.164;13.572;2022-08-19T02:19:32;17.00;;;13.00;;
60610;SDS011;46439;51.164;13.572;2022-08-19T02:22:01;15.10;;;13.10;;
60610;SDS011;46439;51.164;13.572;2022-08-19T02:24:30;16.40;;;13.50;;
60610;SDS011;46439;51.164;13.572;2022-08-19T02:26:58;17.30;;;14.10;;
60610;SDS011;46439;51.164;13.572;2022-08-19T02:29:27;19.30;;;13.30;;
60610;SDS011;46439;51.164;13.572;2022-08-19T02:31:55;18.40;;;14.40;;
60610;SDS011;46439;51.164;13.572;2022-08-19T02:34:23;18.70;;;14.30;;
60610;SDS011;46439;51.164;13.572;2022-08-19T02:36:52;19.20;;;14.90;;
60610;SDS011;46439;51.164;13.572;2022-08-19T02:39:22;18.40;;;14.80;;
60610;SDS011;46439;51.164;13.572;2022-08-19T02:41:52;18.40;;;14.30;;
60610;SDS011;46439;51.164;13.572;2022-08-19T02:44:20;21.50;;;14.80;;
60610;SDS011;46439;51.164;13.572;2022-08-19T02:46:48;21.20;;;15.80;;
60610;SDS011;46439;51.164;13.572;2022-08-19T02:49:17;19.70;;;15.00;;
60610;SDS011;46439;51.164;13.572;2022-08-19T02:51:46;21.00;;;15.70;;
60610;SDS011;46439;51.164;13.572;2022-08-19T02:54:14;19.20;;;15.00;;
60610;SDS011;46439;51.164;13.572;2022-08-19T02:56:43;21.90;;;14.50;;
60610;SDS011;46439;51.164;13.572;2022-08-19T02:59:13;18.20;;;15.00;;
60610;SDS011;46439;51.164;13.572;2022-08-19T03:01:41;21.40;;;16.30;;
60610;SDS011;46439;51.164;13.572;2022-08-19T03:04:11;18.90;;;15.40;;
60610;SDS011;46439;51.164;13.572;2022-08-19T03:09:10;19.90;;;15.60;;
60610;SDS011;46439;51.164;13.572;2022-08-19T03:11:39;22.70;;;16.40;;
60610;SDS011;46439;51.164;13.572;2022-08-19T03:14:08;19.00;;;14.90;;
60610;SDS011;46439;51.164;13.572;2022-08-19T03:16:42;18.40;;;15.20;;
60610;SDS011;46439;51.164;13.572;2022-08-19T03:19:12;18.30;;;15.20;;
60610;SDS011;46439;51.164;13.572;2022-08-19T03:21:42;19.30;;;15.80;;
60610;SDS011;46439;51.164;13.572;2022-08-19T03:24:11;19.60;;;15.00;;
60610;SDS011;46439;51.164;13.572;2022-08-19T03:26:41;19.00;;;15.70;;
60610;SDS011;46439;51.164;13.572;2022-08-19T03:29:11;19.00;;;15.30;;
60610;SDS011;46439;51.164;13.572;2022-08-19T03:31:41;20.80;;;15.10;;
60610;SDS011;46439;51.164;13.572;2022-08-19T03:34:11;18.50;;;15.50;;
60610;SDS011;46439;51.164;13.572;2022-08-19T03:36:41;21.00;;;15.40;;
60610;SDS011;46439;51.164;13.572;2022-08-19T03:39:10;19.60;;;15.50;;
60610;SDS011;46439;51.164;13.572;2022-08-19T03:41:39;22.60;;;15.30;;
60610;SDS011;46439;51.164;13.572;2022-08-19T03:44:09;19.20;;;16.10;;
60610;SDS011;46439;51.164;13.572;2022-08-19T03:46:38;19.30;;;15.40;;
60610;SDS011;46439;51.164;13.572;2022-08-19T03:49:06;20.80;;;15.60;;
60610;SDS011;46439;51.164;13.572;2022-08-19T03:51:36;19.40;;;14.70;;
60610;SDS011;46439;51.164;13.572;2022-08-19T03:54:06;20.50;;;15.10;;
60610;SDS011;46439;51.164;13.572;2022-08-19T03:56:36;21.10;;;16.40;;
60610;SDS011;46439;51.164;13.572;2022-08-19T03:59:07;18.00;;;14.60;;
60610;SDS011;46439;51.164;13.572;2022-08-19T04:01:40;16.80;;;12.50;;
60610;SDS011;46439;51.164;13.572;2022-08-19T04:04:09;22.40;;;15.80;;
60610;SDS011;46439;51.164;13.572;2022-08-19T04:06:38;22.10;;;15.50;;
60610;SDS011;46439;51.164;13.572;2022-08-19T04:09:08;19.70;;;15.40;;
60610;SDS011;46439;51.164;13.572;2022-08-19T04:11:38;19.60;;;16.00;;
60610;SDS011;46439;51.164;13.572;2022-08-19T04:14:14;20.30;;;15.90;;
60610;SDS011;46439;51.164;13.572;2022-08-19T04:16:44;21.30;;;15.80;;
60610;SDS011;46439;51.164;13.572;2022-08-19T04:19:14;18.20;;;15.00;;
60610;SDS011;46439;51.164;13.572;2022-08-19T04:21:45;22.10;;;16.10;;
60610;SDS011;46439;51.164;13.572;2022-08-19T04:24:15;24.90;;;16.30;;
60610;SDS011;46439;51.164;13.572;2022-08-19T04:26:45;20.10;;;15.30;;
60610;SDS011;46439;51.164;13.572;2022-08-19T04:29:15;23.40;;;16.20;;
60610;SDS011;46439;51.164;13.572;2022-08-19T04:31:45;22.90;;;15.90;;
60610;SDS011;46439;51.164;13.572;2022-08-19T04:34:15;22.10;;;16.70;;
60610;SDS011;46439;51.164;13.572;2022-08-19T04:36:49;22.20;;;16.40;;
60610;SDS011;46439;51.164;13.572;2022-08-19T04:39:19;19.60;;;16.30;;
60610;SDS011;46439;51.164;13.572;2022-08-19T04:42:10;24.70;;;16.10;;
60610;SDS011;46439;51.164;13.572;2022-08-19T04:45:01;24.80;;;17.30;;
60610;SDS011;46439;51.164;13.572;2022-08-19T04:47:30;22.10;;;16.80;;
60610;SDS011;46439;51.164;13.572;2022-08-19T04:49:59;21.30;;;15.30;;
60610;SDS011;46439;51.164;13.572;2022-08-19T04:52:27;24.70;;;16.40;;
60610;SDS011;46439;51.164;13.572;2022-08-19T04:54:58;22.00;;;15.90;;
60610;SDS011;46439;51.164;13.572;2022-08-19T04:57:26;21.00;;;16.20;;
60610;SDS011;46439;51.164;13.572;2022-08-19T04:59:55;23.30;;;16.90;;
60610;SDS011;46439;51.164;13.572;2022-08-19T05:02:24;25.80;;;16.80;;
60610;SDS011;46439;51.164;13.572;2022-08-19T05:04:55;19.70;;;15.40;;
60610;SDS011;46439;51.164;13.572;2022-08-19T05:07:27;23.40;;;16.50;;
60610;SDS011;46439;51.164;13.572;2022-08-19T05:09:56;22.70;;;16.50;;
60610;SDS011;46439;51.164;13.572;2022-08-19T05:12:24;20.00;;;14.90;;
60610;SDS011;46439;51.164;13.572;2022-08-19T05:14:55;19.50;;;15.00;;
60610;SDS011;46439;51.164;13.572;2022-08-19T05:17:24;18.90;;;15.40;;
60610;SDS011;46439;51.164;13.572;2022-08-19T05:19:53;21.90;;;15.60;;
60610;SDS011;46439;51.164;13.572;2022-08-19T05:22:41;26.80;;;19.40;;
60610;SDS011;46439;51.164;13.572;2022-08-19T05:25:12;36.50;;;24.30;;
60610;SDS011;46439;51.164;13.572;2022-08-19T05:27:44;26.00;;;19.10;;
60610;SDS011;46439;51.164;13.572;2022-08-19T05:30:12;46.90;;;25.30;;
60610;SDS011;46439;51.164;13.572;2022-08-19T05:32:41;25.50;;;16.40;;
60610;SDS011;46439;51.164;13.572;2022-08-19T05:35:10;19.60;;;14.50;;
60610;SDS011;46439;51.164;13.572;2022-08-19T05:37:38;19.10;;;13.00;;
60610;SDS011;46439;51.164;13.572;2022-08-19T05:40:08;18.40;;;12.50;;
60610;SDS011;46439;51.164;13.572;2022-08-19T05:42:37;16.50;;;12.40;;
60610;SDS011;46439;51.164;13.572;2022-08-19T05:45:07;18.90;;;11.00;;
60610;SDS011;46439;51.164;13.572;2022-08-19T05:47:37;13.20;;;10.70;;
60610;SDS011;46439;51.164;13.572;2022-08-19T05:50:06;18.90;;;10.60;;
60610;SDS011;46439;51.164;13.572;2022-08-19T05:52:35;14.20;;;10.00;;
60610;SDS011;46439;51.164;13.572;2022-08-19T05:55:06;15.80;;;9.50;;
60610;SDS011;46439;51.164;13.572;2022-08-19T05:57:35;16.70;;;10.70;;
60610;SDS011;46439;51.164;13.572;2022-08-19T06:00:05;15.00;;;10.00;;
60610;SDS011;46439;51.164;13.572;2022-08-19T06:02:38;13.40;;;9.70;;
60610;SDS011;46439;51.164;13.572;2022-08-19T06:05:07;16.40;;;10.70;;
60610;SDS011;46439;51.164;13.572;2022-08-19T06:07:37;15.10;;;11.10;;
60610;SDS011;46439;51.164;13.572;2022-08-19T06:10:07;14.80;;;10.70;;
60610;SDS011;46439;51.164;13.572;2022-08-19T06:15:06;15.70;;;11.10;;
60610;SDS011;46439;51.164;13.572;2022-08-19T06:17:36;17.30;;;11.80;;
60610;SDS011;46439;51.164;13.572;2022-08-19T06:20:05;16.70;;;12.30;;
60610;SDS011;46439;51.164;13.572;2022-08-19T06:22:39;18.60;;;12.60;;
60610;SDS011;46439;51.164;13.572;2022-08-19T06:25:09;17.40;;;12.60;;
60610;SDS011;46439;51.164;13.572;2022-08-19T06:27:39;18.70;;;14.90;;
60610;SDS011;46439;51.164;13.572;2022-08-19T06:30:09;17.40;;;14.10;;
60610;SDS011;46439;51.164;13.572;2022-08-19T06:32:38;23.80;;;14.80;;
60610;SDS011;46439;51.164;13.572;2022-08-19T06:35:08;21.80;;;15.70;;
60610;SDS011;46439;51.164;13.572;2022-08-19T06:37:37;24.40;;;17.80;;
60610;SDS011;46439;51.164;13.572;2022-08-19T06:40:06;27.30;;;17.00;;
60610;SDS011;46439;51.164;13.572;2022-08-19T06:42:36;31.90;;;17.90;;
60610;SDS011;46439;51.164;13.572;2022-08-19T06:45:06;28.60;;;17.90;;
60610;SDS011;46439;51.164;13.572;2022-08-19T06:47:35;26.80;;;17.70;;
60610;SDS011;46439;51.164;13.572;2022-08-19T06:50:04;26.30;;;17.40;;
60610;SDS011;46439;51.164;13.572;2022-08-19T06:52:34;25.10;;;17.60;;
60610;SDS011;46439;51.164;13.572;2022-08-19T06:55:03;24.30;;;18.40;;
60610;SDS011;46439;51.164;13.572;2022-08-19T06:57:35;26.60;;;18.00;;
60610;SDS011;46439;51.164;13.572;2022-08-19T07:00:05;25.00;;;17.80;;
60610;SDS011;46439;51.164;13.572;2022-08-19T07:02:39;25.80;;;17.40;;
60610;SDS011;46439;51.164;13.572;2022-08-19T07:05:09;24.80;;;16.30;;
60610;SDS011;46439;51.164;13.572;2022-08-19T07:07:38;22.00;;;16.40;;
60610;SDS011;46439;51.164;13.572;2022-08-19T07:10:10;24.30;;;17.00;;
60610;SDS011;46439;51.164;13.572;2022-08-19T07:12:38;26.10;;;16.40;;
60610;SDS011;46439;51.164;13.572;2022-08-19T07:15:08;24.30;;;16.10;;
60610;SDS011;46439;51.164;13.572;2022-08-19T07:17:37;22.30;;;15.50;;
60610;SDS011;46439;51.164;13.572;2022-08-19T07:20:09;22.30;;;16.60;;
60610;SDS011;46439;51.164;13.572;2022-08-19T07:22:39;26.60;;;16.70;;
60610;SDS011;46439;51.164;13.572;2022-08-19T07:25:10;25.20;;;16.60;;
60610;SDS011;46439;51.164;13.572;2022-08-19T07:27:39;20.80;;;15.70;;
60610;SDS011;46439;51.164;13.572;2022-08-19T07:30:11;25.40;;;15.40;;
60610;SDS011;46439;51.164;13.572;2022-08-19T07:32:40;20.30;;;15.20;;
60610;SDS011;46439;51.164;13.572;2022-08-19T07:35:09;19.90;;;14.90;;
60610;SDS011;46439;51.164;13.572;2022-08-19T07:37:40;25.60;;;15.60;;
60610;SDS011;46439;51.164;13.572;2022-08-19T07:40:11;23.80;;;17.00;;
60610;SDS011;46439;51.164;13.572;2022-08-19T07:42:39;23.00;;;15.30;;
60610;SDS011;46439;51.164;13.572;2022-08-19T07:45:10;19.80;;;15.60;;
60610;SDS011;46439;51.164;13.572;2022-08-19T07:47:38;22.60;;;16.10;;
60610;SDS011;46439;51.164;13.572;2022-08-19T07:50:09;24.10;;;16.20;;
60610;SDS011;46439;51.164;13.572;2022-08-19T07:52:38;26.20;;;16.10;;
60610;SDS011;46439;51.164;13.572;2022-08-19T07:55:10;22.10;;;15.80;;
60610;SDS011;46439;51.164;13.572;2022-08-19T07:57:43;22.50;;;16.40;;
60610;SDS011;46439;51.164;13.572;2022-08-19T08:00:12;23.90;;;15.80;;
60610;SDS011;46439;51.164;13.572;2022-08-19T08:02:44;22.40;;;15.80;;
60610;SDS011;46439;51.164;13.572;2022-08-19T08:05:12;21.90;;;16.20;;
60610;SDS011;46439;51.164;13.572;2022-08-19T08:07:59;22.70;;;16.10;;
60610;SDS011;46439;51.164;13.572;2022-08-19T08:10:47;23.30;;;16.40;;
60610;SDS011;46439;51.164;13.572;2022-08-19T08:13:16;22.20;;;15.10;;
60610;SDS011;46439;51.164;13.572;2022-08-19T08:15:44;19.60;;;15.00;;
60610;SDS011;46439;51.164;13.572;2022-08-19T08:18:13;21.00;;;15.30;;
60610;SDS011;46439;51.164;13.572;2022-08-19T08:20:41;25.70;;;17.00;;
60610;SDS011;46439;51.164;13.572;2022-08-19T08:23:10;18.80;;;15.50;;
60610;SDS011;46439;51.164;13.572;2022-08-19T08:25:55;26.20;;;16.40;;
60610;SDS011;46439;51.164;13.572;2022-08-19T08:28:25;23.20;;;15.20;;
60610;SDS011;46439;51.164;13.572;2022-08-19T08:30:53;19.40;;;14.60;;
60610;SDS011;46439;51.164;13.572;2022-08-19T08:33:23;17.90;;;14.40;;
60610;SDS011;46439;51.164;13.572;2022-08-19T08:35:53;23.00;;;16.00;;
60610;SDS011;46439;51.164;13.572;2022-08-19T08:38:22;19.10;;;14.40;;
60610;SDS011;46439;51.164;13.572;2022-08-19T08:40:52;20.30;;;15.50;;
60610;SDS011;46439;51.164;13.572;2022-08-19T08:43:34;21.60;;;15.90;;
60610;SDS011;46439;51.164;13.572;2022-08-19T08:46:05;21.80;;;16.90;;
60610;SDS011;46439;51.164;13.572;2022-08-19T08:48:37;19.70;;;15.20;;
60610;SDS011;46439;51.164;13.572;2022-08-19T08:51:15;23.50;;;15.90;;
60610;SDS011;46439;51.164;13.572;2022-08-19T08:53:49;25.80;;;16.00;;
60610;SDS011;46439;51.164;13.572;2022-08-19T08:56:19;21.50;;;15.70;;
60610;SDS011;46439;51.164;13.572;2022-08-19T08:58:51;18.80;;;14.80;;
60610;SDS011;46439;51.164;13.572;2022-08-19T09:01:24;22.10;;;16.40;;
60610;SDS011;46439;51.164;13.572;2022-08-19T09:03:54;19.20;;;16.10;;
60610;SDS011;46439;51.164;13.572;2022-08-19T09:06:23;27.60;;;16.00;;
60610;SDS011;46439;51.164;13.572;2022-08-19T09:09:01;22.40;;;16.10;;
60610;SDS011;46439;51.164;13.572;2022-08-19T09:11:36;24.80;;;16.50;;
60610;SDS011;46439;51.164;13.572;2022-08-19T09:14:16;21.90;;;16.70;;
60610;SDS011;46439;51.164;13.572;2022-08-19T09:16:57;20.20;;;16.10;;
60610;SDS011;46439;51.164;13.572;2022-08-19T09:19:29;25.80;;;17.10;;
60610;SDS011;46439;51.164;13.572;2022-08-19T09:21:59;22.60;;;16.30;;
60610;SDS011;46439;51.164;13.572;2022-08-19T09:24:27;24.60;;;17.30;;
60610;SDS011;46439;51.164;13.572;2022-08-19T09:26:55;22.40;;;16.30;;
60610;SDS011;46439;51.164;13.572;2022-08-19T09:29:24;21.90;;;16.50;;
60610;SDS011;46439;51.164;13.572;2022-08-19T09:31:54;25.20;;;16.10;;
60610;SDS011;46439;51.164;13.572;2022-08-19T09:34:22;18.40;;;14.10;;
60610;SDS011;46439;51.164;13.572;2022-08-19T09:36:50;17.50;;;12.70;;
60610;SDS011;46439;51.164;13.572;2022-08-19T09:39:21;19.10;;;12.80;;
60610;SDS011;46439;51.164;13.572;2022-08-19T09:41:50;17.40;;;12.90;;
60610;SDS011;46439;51.164;13.572;2022-08-19T09:44:19;16.30;;;12.90;;
60610;SDS011;46439;51.164;13.572;2022-08-19T09:46:47;15.30;;;12.20;;
60610;SDS011;46439;51.164;13.572;2022-08-19T09:49:18;17.50;;;13.40;;
60610;SDS011;46439;51.164;13.572;2022-08-19T09:51:50;19.00;;;13.80;;
60610;SDS011;46439;51.164;13.572;2022-08-19T09:54:22;20.00;;;13.80;;
60610;SDS011;46439;51.164;13.572;2022-08-19T09:56:52;23.70;;;14.60;;
60610;SDS011;46439;51.164;13.572;2022-08-19T09:59:20;19.20;;;13.60;;
60610;SDS011;46439;51.164;13.572;2022-08-19T10:01:49;17.40;;;13.30;;
60610;SDS011;46439;51.164;13.572;2022-08-19T10:04:18;19.50;;;13.40;;
60610;SDS011;46439;51.164;13.572;2022-08-19T10:06:47;17.40;;;13.20;;
60610;SDS011;46439;51.164;13.572;2022-08-19T10:09:18;17.80;;;13.20;;
60610;SDS011;46439;51.164;13.572;2022-08-19T10:11:46;15.50;;;12.90;;
60610;SDS011;46439;51.164;13.572;2022-08-19T10:14:16;18.90;;;13.20;;
60610;SDS011;46439;51.164;13.572;2022-08-19T10:16:48;17.60;;;13.10;;
60610;SDS011;46439;51.164;13.572;2022-08-19T10:19:17;17.10;;;12.50;;
60610;SDS011;46439;51.164;13.572;2022-08-19T10:21:48;16.20;;;12.60;;
60610;SDS011;46439;51.164;13.572;2022-08-19T10:24:16;15.40;;;12.60;;
60610;SDS011;46439;51.164;13.572;2022-08-19T10:26:46;17.20;;;13.40;;
60610;SDS011;46439;51.164;13.572;2022-08-19T10:29:14;22.50;;;14.20;;
60610;SDS011;46439;51.164;13.572;2022-08-19T10:31:43;22.10;;;15.60;;
60610;SDS011;46439;51.164;13.572;2022-08-19T10:34:13;20.20;;;15.10;;
60610;SDS011;46439;51.164;13.572;2022-08-19T10:36:42;22.30;;;15.50;;
60610;SDS011;46439;51.164;13.572;2022-08-19T10:39:10;22.10;;;15.20;;
60610;SDS011;46439;51.164;13.572;2022-08-19T10:41:39;20.00;;;14.80;;
60610;SDS011;46439;51.164;13.572;2022-08-19T10:44:10;20.90;;;14.20;;
60610;SDS011;46439;51.164;13.572;2022-08-19T10:46:42;17.20;;;14.30;;
60610;SDS011;46439;51.164;13.572;2022-08-19T10:49:13;19.50;;;14.30;;
60610;SDS011;46439;51.164;13.572;2022-08-19T10:51:41;18.70;;;14.00;;
60610;SDS011;46439;51.164;13.572;2022-08-19T10:54:29;18.00;;;13.60;;
60610;SDS011;46439;51.164;13.572;2022-08-19T10:57:18;18.20;;;14.40;;
60610;SDS011;46439;51.164;13.572;2022-08-19T10:59:46;20.70;;;15.00;;
60610;SDS011;46439;51.164;13.572;2022-08-19T11:02:15;18.80;;;14.20;;
60610;SDS011;46439;51.164;13.572;2022-08-19T11:04:43;18.50;;;14.70;;
60610;SDS011;46439;51.164;13.572;2022-08-19T11:07:11;20.80;;;16.20;;
60610;SDS011;46439;51.164;13.572;2022-08-19T11:09:40;21.50;;;15.70;;
60610;SDS011;46439;51.164;13.572;2022-08-19T11:12:09;23.80;;;16.00;;
60610;SDS011;46439;51.164;13.572;2022-08-19T11:14:39;20.50;;;15.10;;
60610;SDS011;46439;51.164;13.572;2022-08-19T11:17:07;22.50;;;16.80;;
60610;SDS011;46439;51.164;13.572;2022-08-19T11:19:37;24.60;;;17.50;;
60610;SDS011;46439;51.164;13.572;2022-08-19T11:22:07;25.00;;;18.70;;
60610;SDS011;46439;51.164;13.572;2022-08-19T11:24:36;26.90;;;19.70;;
60610;SDS011;46439;51.164;13.572;2022-08-19T11:27:05;29.80;;;20.40;;
60610;SDS011;46439;51.164;13.572;2022-08-19T11:29:38;34.70;;;22.40;;
60610;SDS011;46439;51.164;13.572;2022-08-19T11:32:08;32.70;;;22.90;;
60610;SDS011;46439;51.164;13.572;2022-08-19T11:34:39;36.70;;;25.30;;
60610;SDS011;46439;51.164;13.572;2022-08-19T11:37:07;36.70;;;25.50;;
60610;SDS011;46439;51.164;13.572;2022-08-19T11:39:36;35.80;;;25.90;;
60610;SDS011;46439;51.164;13.572;2022-08-19T11:42:06;39.10;;;25.30;;
60610;SDS011;46439;51.164;13.572;2022-08-19T11:44:53;38.30;;;25.00;;
60610;SDS011;46439;51.164;13.572;2022-08-19T11:47:22;42.00;;;26.40;;
60610;SDS011;46439;51.164;13.572;2022-08-19T11:49:50;35.30;;;25.30;;
60610;SDS011;46439;51.164;13.572;2022-08-19T11:52:19;34.30;;;24.80;;
60610;SDS011;46439;51.164;13.572;2022-08-19T11:54:48;37.10;;;24.00;;
60610;SDS011;46439;51.164;13.572;2022-08-19T11:57:16;30.80;;;22.60;;
60610;SDS011;46439;51.164;13.572;2022-08-19T11:59:48;36.80;;;24.80;;
60610;SDS011;46439;51.164;13.572;2022-08-19T12:02:18;35.80;;;24.20;;
60610;SDS011;46439;51.164;13.572;2022-08-19T12:04:48;40.30;;;26.30;;
60610;SDS011;46439;51.164;13.572;2022-08-19T12:07:16;32.90;;;23.60;;
60610;SDS011;46439;51.164;13.572;2022-08-19T12:09:44;30.30;;;22.20;;
60610;SDS011;46439;51.164;13.572;2022-08-19T12:12:13;29.10;;;20.90;;
60610;SDS011;46439;51.164;13.572;2022-08-19T12:14:42;29.70;;;21.40;;
60610;SDS011;46439;51.164;13.572;2022-08-19T12:17:11;29.80;;;21.70;;
60610;SDS011;46439;51.164;13.572;2022-08-19T12:19:39;29.30;;;21.40;;
60610;SDS011;46439;51.164;13.572;2022-08-19T12:22:08;27.50;;;21.50;;
60610;SDS011;46439;51.164;13.572;2022-08-19T12:24:36;28.80;;;21.60;;
60610;SDS011;46439;51.164;13.572;2022-08-19T12:27:05;27.10;;;20.20;;
60610;SDS011;46439;51.164;13.572;2022-08-19T12:29:33;28.00;;;21.50;;
60610;SDS011;46439;51.164;13.572;2022-08-19T12:32:02;26.20;;;20.20;;
60610;SDS011;46439;51.164;13.572;2022-08-19T12:34:31;29.40;;;21.70;;
60610;SDS011;46439;51.164;13.572;2022-08-19T12:37:01;33.40;;;20.70;;
60610;SDS011;46439;51.164;13.572;2022-08-19T12:39:34;30.30;;;18.70;;
60610;SDS011;46439;51.164;13.572;2022-08-19T12:42:05;31.40;;;20.20;;
60610;SDS011;46439;51.164;13.572;2022-08-19T12:44:35;25.80;;;19.50;;
60610;SDS011;46439;51.164;13.572;2022-08-19T12:47:06;26.40;;;19.60;;
60610;SDS011;46439;51.164;13.572;2022-08-19T12:49:36;26.20;;;19.20;;
60610;SDS011;46439;51.164;13.572;2022-08-19T12:52:06;26.00;;;19.10;;
60610;SDS011;46439;51.164;13.572;2022-08-19T12:54:35;25.10;;;19.60;;
60610;SDS011;46439;51.164;13.572;2022-08-19T12:57:06;28.60;;;19.50;;
60610;SDS011;46439;51.164;13.572;2022-08-19T12:59:36;25.90;;;19.20;;
60610;SDS011;46439;51.164;13.572;2022-08-19T13:02:06;32.60;;;22.10;;
60610;SDS011;46439;51.164;13.572;2022-08-19T13:04:35;27.50;;;21.40;;
60610;SDS011;46439;51.164;13.572;2022-08-19T13:09:35;28.90;;;21.50;;
60610;SDS011;46439;51.164;13.572;2022-08-19T13:12:05;29.00;;;22.20;;
60610;SDS011;46439;51.164;13.572;2022-08-19T13:14:39;28.70;;;22.30;;
60610;SDS011;46439;51.164;13.572;2022-08-19T13:17:08;26.40;;;20.70;;
60610;SDS011;46439;51.164;13.572;2022-08-19T13:19:38;32.30;;;22.10;;
60610;SDS011;46439;51.164;13.572;2022-08-19T13:22:06;28.80;;;20.90;;
60610;SDS011;46439;51.164;13.572;2022-08-19T13:24:37;28.50;;;20.40;;
60610;SDS011;46439;51.164;13.572;2022-08-19T13:27:06;32.20;;;23.10;;
60610;SDS011;46439;51.164;13.572;2022-08-19T13:29:34;26.60;;;20.00;;
60610;SDS011;46439;51.164;13.572;2022-08-19T13:32:21;30.00;;;23.10;;
60610;SDS011;46439;51.164;13.572;2022-08-19T13:35:09;24.30;;;18.60;;
60610;SDS011;46439;51.164;13.572;2022-08-19T13:37:37;30.20;;;21.20;;
60610;SDS011;46439;51.164;13.572;2022-08-19T13:40:10;33.00;;;21.50;;
60610;SDS011;46439;51.164;13.572;2022-08-19T13:42:42;26.00;;;20.10;;
60610;SDS011;46439;51.164;13.572;2022-08-19T13:45:12;27.60;;;21.70;;
60610;SDS011;46439;51.164;13.572;2022-08-19T13:47:44;28.50;;;21.90;;
60610;SDS011;46439;51.164;13.572;2022-08-19T13:50:17;36.30;;;23.50;;
60610;SDS011;46439;51.164;13.572;2022-08-19T13:52:47;31.30;;;21.50;;
60610;SDS011;46439;51.164;13.572;2022-08-19T13:55:15;29.90;;;22.40;;
60610;SDS011;46439;51.164;13.572;2022-08-19T13:57:44;34.30;;;23.60;;
60610;SDS011;46439;51.164;13.572;2022-08-19T14:00:17;30.00;;;23.30;;
60610;SDS011;46439;51.164;13.572;2022-08-19T14:02:47;34.00;;;23.20;;
60610;SDS011;46439;51.164;13.572;2022-08-19T14:05:19;32.30;;;23.40;;
60610;SDS011;46439;51.164;13.572;2022-08-19T14:07:47;37.80;;;23.80;;
60610;SDS011;46439;51.164;13.572;2022-08-19T14:10:16;32.20;;;22.20;;
60610;SDS011;46439;51.164;13.572;2022-08-19T14:12:46;29.70;;;23.00;;
60610;SDS011;46439;51.164;13.572;2022-08-19T14:15:15;36.10;;;25.00;;
60610;SDS011;46439;51.164;13.572;2022-08-19T14:17:44;36.40;;;24.80;;
60610;SDS011;46439;51.164;13.572;2022-08-19T14:20:15;33.60;;;24.40;;
60610;SDS011;46439;51.164;13.572;2022-08-19T14:22:45;36.40;;;26.50;;
60610;SDS011;46439;51.164;13.572;2022-08-19T14:25:16;37.40;;;25.30;;
60610;SDS011;46439;51.164;13.572;2022-08-19T14:27:46;33.70;;;25.30;;
60610;SDS011;46439;51.164;13.572;2022-08-19T14:30:16;36.60;;;24.80;;
60610;SDS011;46439;51.164;13.572;2022-08-19T14:35:14;34.00;;;25.20;;
60610;SDS011;46439;51.164;13.572;2022-08-19T14:37:45;31.70;;;25.00;;
60610;SDS011;46439;51.164;13.572;2022-08-19T14:40:15;33.30;;;25.40;;